Time;durP1;ratioP1;P1;durP2;ratioP2;P2;SDS_P1;SDS_P2;PMS_P1;PMS_P2;Temp;Humidity;BMP_temperature;BMP_pressure;BME280_temperature;BME280_humidity;BME280_pressure;Samples;Min_cycle;Max_cycle;Signal;HPM_P1;HPM_P2
2022/09/06 00:00:23;;;;;;;7.47;2.33;;;;;;;21.73;100.00;94982.28;5038971;28;20083;-91
2022/09/06 00:02:49;;;;;;;7.25;2.20;;;;;;;21.98;100.00;94983.19;5055714;28;20029;-91
2022/09/06 00:05:14;;;;;;;7.68;2.00;;;;;;;21.75;100.00;94980.06;5039052;28;20087;-91
2022/09/06 00:07:40;;;;;;;4.15;1.90;;;;;;;21.79;100.00;94986.31;5055445;28;20054;-92
2022/09/06 00:10:06;;;;;;;11.32;2.30;;;;;;;21.91;90.11;94977.63;5022659;28;20033;-91
2022/09/06 00:12:32;;;;;;;5.97;1.75;;;;;;;22.08;90.47;94974.03;5022466;28;20063;-92
2022/09/06 00:15:09;;;;;;;5.45;1.77;;;;;;;22.23;83.99;94977.22;5038910;28;20033;-92
2022/09/06 00:17:35;;;;;;;10.38;1.98;;;;;;;22.21;96.47;94971.41;5022430;28;20028;-90
2022/09/06 00:20:02;;;;;;;3.88;1.70;;;;;;;21.66;98.00;94968.66;5038592;28;20025;-90
2022/09/06 00:22:27;;;;;;;10.25;1.80;;;;;;;21.96;99.90;94971.31;5038881;28;20376;-91
2022/09/06 00:24:58;;;;;;;6.75;1.80;;;;;;;21.93;98.05;94969.28;5038894;28;20070;-91
2022/09/06 00:27:23;;;;;;;5.65;1.60;;;;;;;21.76;90.90;94970.97;5038871;28;20021;-91
2022/09/06 00:29:49;;;;;;;4.05;1.60;;;;;;;21.58;89.80;94965.72;5022350;28;20021;-91
2022/09/06 00:32:14;;;;;;;5.07;1.65;;;;;;;21.67;87.57;94967.59;5022287;28;20025;-91
2022/09/06 00:34:39;;;;;;;7.35;1.83;;;;;;;21.68;86.36;94966.47;5022451;28;20029;-91
2022/09/06 00:37:05;;;;;;;5.68;1.85;;;;;;;21.64;87.57;94962.84;5022130;28;20033;-91
2022/09/06 00:39:30;;;;;;;4.82;1.65;;;;;;;21.61;91.55;94958.97;5038469;28;20021;-92
2022/09/06 00:41:56;;;;;;;6.00;1.88;;;;;;;21.52;93.29;94958.22;5022134;28;20036;-91
2022/09/06 00:44:21;;;;;;;6.43;1.92;;;;;;;21.50;97.01;94963.09;5038447;28;20025;-91
2022/09/06 00:46:48;;;;;;;4.55;1.60;;;;;;;21.43;98.72;94959.03;5038519;28;20028;-91
2022/09/06 00:49:20;;;;;;;6.00;1.58;;;;;;;21.05;100.00;94959.88;5038470;28;20053;-92
2022/09/06 00:51:46;;;;;;;6.30;2.08;;;;;;;20.15;100.00;94965.66;5039199;28;20033;-91
2022/09/06 00:54:11;;;;;;;5.05;1.83;;;;;;;20.31;100.00;94960.66;5021385;28;20037;-90
2022/09/06 00:56:41;;;;;;;9.15;2.08;;;;;;;20.63;100.00;94955.91;5041810;28;20032;-92
2022/09/06 00:59:06;;;;;;;7.00;2.00;;;;;;;20.37;100.00;94963.13;5041813;28;20437;-91
2022/09/06 01:01:32;;;;;;;10.85;1.50;;;;;;;20.17;100.00;94950.16;5027292;28;20083;-91
2022/09/06 01:03:57;;;;;;;9.13;2.17;;;;;;;20.31;99.22;94952.66;5041997;28;20084;-91
2022/09/06 01:06:27;;;;;;;2.63;1.42;;;;;;;20.81;97.47;94955.09;5042114;28;20358;-90
2022/09/06 01:09:14;;;;;;;11.48;1.98;;;;;;;20.74;98.71;94958.22;5058451;28;20020;-90
2022/09/06 01:12:12;;;;;;;8.50;1.58;;;;;;;20.80;100.00;94964.13;5059597;28;20033;-91
2022/09/06 01:14:47;;;;;;;5.35;1.60;;;;;;;20.98;91.08;94960.38;5041915;28;20167;-92
2022/09/06 01:18:02;;;;;;;3.72;1.40;;;;;;;21.27;88.54;94950.03;5041703;28;20025;-92
2022/09/06 01:20:56;;;;;;;6.40;1.83;;;;;;;21.16;92.27;94953.09;4997479;28;20342;-93
2022/09/06 01:23:36;;;;;;;3.33;1.48;;;;;;;21.18;95.22;94950.88;5025400;28;20132;-91
2022/09/06 01:26:27;;;;;;;6.75;1.33;;;;;;;21.10;95.19;94953.59;5059245;28;20044;-91
2022/09/06 01:28:52;;;;;;;3.95;1.63;;;;;;;20.97;90.37;94961.47;5059203;28;20524;-92
2022/09/06 01:31:24;;;;;;;2.40;1.20;;;;;;;21.00;90.28;94955.50;5041737;28;20049;-92
2022/09/06 01:33:56;;;;;;;9.73;1.58;;;;;;;21.22;95.02;94959.00;5059166;28;20029;-91
2022/09/06 01:36:26;;;;;;;7.07;1.77;;;;;;;20.95;97.35;94960.22;5041478;28;20422;-91
2022/09/06 01:38:52;;;;;;;7.85;1.80;;;;;;;20.81;98.78;94965.75;5041374;28;20032;-92
2022/09/06 01:41:17;;;;;;;9.43;1.38;;;;;;;20.87;90.48;94959.94;5041247;28;20029;-91
2022/09/06 01:43:45;;;;;;;4.40;1.27;;;;;;;20.89;87.31;94959.59;5041470;28;20025;-92
2022/09/06 01:46:18;;;;;;;3.30;1.42;;;;;;;20.89;88.17;94964.94;5041304;28;20025;-90
2022/09/06 01:48:52;;;;;;;8.85;1.67;;;;;;;20.82;89.09;94962.75;5041337;28;20056;-91
2022/09/06 01:51:32;;;;;;;9.82;1.48;;;;;;;20.54;97.57;94962.34;5041326;28;20025;-90
2022/09/06 01:53:57;;;;;;;9.13;1.70;;;;;;;20.32;90.16;94954.22;5058818;28;20472;-91
2022/09/06 01:56:44;;;;;;;4.93;1.40;;;;;;;20.74;100.00;94956.31;5058771;28;20036;-91
2022/09/06 01:59:28;;;;;;;7.50;1.90;;;;;;;20.79;91.28;94951.91;5041082;28;20025;-91
2022/09/06 02:02:05;;;;;;;;;;;;;;;20.88;93.49;94953.50;5059203;28;20025;-92
2022/09/06 02:04:43;;;;;;;5.30;1.55;;;;;;;20.82;92.83;94956.66;5023807;28;19912;-91
2022/09/06 02:07:38;;;;;;;2.67;1.15;;;;;;;20.72;90.22;94958.53;5024738;28;20086;-91
2022/09/06 02:10:21;;;;;;;8.68;1.42;;;;;;;20.75;89.71;94955.22;5028285;28;20068;-91
2022/09/06 02:12:49;;;;;;;6.05;2.03;;;;;;;20.29;89.19;94954.06;5024408;28;20037;-91
2022/09/06 02:15:38;;;;;;;2.88;1.45;;;;;;;19.87;95.09;94954.50;5024358;28;20060;-91
2022/09/06 02:18:16;;;;;;;3.08;1.65;;;;;;;19.81;97.20;94955.75;5040735;28;20102;-91
2022/09/06 02:20:48;;;;;;;4.35;1.63;;;;;;;20.14;90.79;94953.47;5040707;28;20044;-92
2022/09/06 02:23:14;;;;;;;3.35;1.42;;;;;;;20.26;89.92;94952.03;5024531;28;20025;-91
2022/09/06 02:25:44;;;;;;;6.40;1.60;;;;;;;20.23;86.69;94950.78;5040608;28;20403;-91
2022/09/06 02:28:10;;;;;;;3.30;1.50;;;;;;;19.98;89.57;94947.06;5040586;28;20056;-92
2022/09/06 02:30:39;;;;;;;2.92;1.27;;;;;;;20.19;87.92;94940.00;5040573;28;20036;-90
2022/09/06 02:33:09;;;;;;;3.92;1.30;;;;;;;20.08;88.88;94935.31;5040574;28;20025;-91
2022/09/06 02:35:44;;;;;;;4.00;1.50;;;;;;;20.28;89.62;94932.00;5040548;28;20033;-91
2022/09/06 02:38:09;;;;;;;1.67;1.27;;;;;;;20.37;92.67;94934.66;5040559;28;20413;-91
2022/09/06 02:40:35;;;;;;;4.35;1.40;;;;;;;20.41;95.64;94937.47;5040245;28;20079;-92
2022/09/06 02:43:00;;;;;;;6.28;1.58;;;;;;;20.42;89.05;94937.16;5040355;28;20028;-91
2022/09/06 02:45:26;;;;;;;3.35;1.48;;;;;;;20.46;88.54;94945.28;5040205;28;20460;-91
2022/09/06 02:47:51;;;;;;;3.35;1.35;;;;;;;20.51;86.82;94939.78;5040122;28;20140;-91
2022/09/06 02:50:17;;;;;;;3.13;1.33;;;;;;;20.67;72.83;94936.63;5040266;28;20025;-92
2022/09/06 02:52:42;;;;;;;6.00;1.35;;;;;;;20.98;71.59;94932.94;5040043;28;20032;-92
2022/09/06 02:56:03;;;;;;;2.53;1.10;;;;;;;21.05;81.04;94928.66;5040202;28;20055;-91
2022/09/06 02:58:28;;;;;;;4.82;1.23;;;;;;;20.88;79.53;94932.22;5057579;28;20473;-91
2022/09/06 03:01:25;;;;;;;2.97;1.20;;;;;;;20.81;80.69;94929.25;5039932;28;20107;-92
2022/09/06 03:03:50;;;;;;;5.80;1.48;;;;;;;20.66;81.02;94933.19;5056574;28;20033;-91
2022/09/06 03:06:16;;;;;;;1.77;1.23;;;;;;;20.66;82.00;94927.06;5023600;28;20040;-90
2022/09/06 03:08:41;;;;;;;5.28;1.90;;;;;;;20.64;88.11;94930.03;5039889;28;20033;-92
2022/09/06 03:11:07;;;;;;;5.65;1.30;;;;;;;20.48;82.91;94922.56;5039657;28;20036;-92
2022/09/06 03:13:38;;;;;;;4.15;1.60;;;;;;;20.40;87.83;94926.03;5039787;28;20426;-91
2022/09/06 03:16:04;;;;;;;9.18;1.33;;;;;;;20.48;86.77;94922.56;5039293;28;20087;-92
2022/09/06 03:18:30;;;;;;;4.15;1.42;;;;;;;20.52;86.14;94929.94;5039107;28;20025;-91
2022/09/06 03:20:56;;;;;;;5.03;1.40;;;;;;;20.29;89.02;94932.78;5022408;28;20098;-91
2022/09/06 03:23:24;;;;;;;8.65;1.67;;;;;;;19.75;93.59;94931.19;5039835;28;20053;-93
2022/09/06 03:25:49;;;;;;;3.53;1.38;;;;;;;19.90;91.31;94925.41;5055995;28;20033;-91
2022/09/06 03:28:16;;;;;;;2.90;1.33;;;;;;;20.07;88.90;94923.88;5039440;28;20044;-91
2022/09/06 03:30:47;;;;;;;2.78;1.45;;;;;;;20.39;86.20;94919.16;5039497;28;20025;-91
2022/09/06 03:33:13;;;;;;;5.70;1.60;;;;;;;20.42;84.73;94925.72;5056203;28;20040;-91
2022/09/06 03:35:38;;;;;;;7.65;1.70;;;;;;;20.28;84.86;94925.91;5039453;28;20033;-91
2022/09/06 03:38:04;;;;;;;3.47;1.42;;;;;;;20.27;89.45;94925.13;5055738;28;20067;-92
2022/09/06 03:40:29;;;;;;;5.55;1.42;;;;;;;20.12;87.43;94926.41;5039290;28;20029;-91
2022/09/06 03:42:55;;;;;;;4.75;1.65;;;;;;;20.30;90.06;94926.38;5039411;28;20039;-91
2022/09/06 03:45:20;;;;;;;5.20;1.38;;;;;;;20.38;86.38;94928.25;5039408;28;20032;-91
2022/09/06 03:47:46;;;;;;;4.65;1.58;;;;;;;20.39;90.67;94923.69;5039202;28;20156;-91
2022/09/06 03:50:11;;;;;;;3.67;1.50;;;;;;;20.44;85.30;94918.97;5039096;28;20099;-92
2022/09/06 03:52:37;;;;;;;3.72;1.55;;;;;;;20.49;85.46;94921.47;5022833;28;20070;-91
2022/09/06 03:55:03;;;;;;;7.03;1.38;;;;;;;20.40;79.47;94918.06;5039352;28;20029;-91
2022/09/06 03:57:28;;;;;;;4.80;1.33;;;;;;;20.49;87.25;94926.78;5038962;28;20460;-91
2022/09/06 03:59:54;;;;;;;4.85;1.23;;;;;;;20.52;83.51;94922.72;5038795;28;20036;-91
2022/09/06 04:02:19;;;;;;;4.47;1.27;;;;;;;20.51;80.34;94917.72;5038920;28;20032;-90
2022/09/06 04:04:45;;;;;;;3.47;1.60;;;;;;;20.32;81.22;94921.50;5038817;28;20040;-91
2022/09/06 04:07:10;;;;;;;7.25;1.35;;;;;;;20.38;94.86;94911.47;5038807;28;20029;-91
2022/09/06 04:09:36;;;;;;;7.50;1.70;;;;;;;20.29;76.28;94914.94;5019389;28;20036;-92
2022/09/06 04:12:02;;;;;;;3.75;1.25;;;;;;;20.88;72.58;94908.25;5030498;28;20039;-91
2022/09/06 04:14:28;;;;;;;3.72;1.50;;;;;;;20.96;67.17;94906.63;5054322;28;20052;-91
2022/09/06 04:16:56;;;;;;;14.52;1.35;;;;;;;21.21;66.13;94906.03;5037099;28;20401;-91
2022/09/06 04:19:22;;;;;;;7.78;1.58;;;;;;;21.31;66.06;94908.34;5031234;28;20416;-90
2022/09/06 04:21:48;;;;;;;6.65;1.77;;;;;;;21.16;71.38;94909.66;5036991;28;20025;-90
2022/09/06 04:24:13;;;;;;;6.55;1.10;;;;;;;21.12;71.13;94904.19;5038596;28;20721;-91
2022/09/06 04:26:38;;;;;;;3.03;1.30;;;;;;;21.08;74.39;94905.94;5038495;28;20167;-90
2022/09/06 04:29:04;;;;;;;7.63;1.10;;;;;;;20.91;74.72;94901.47;5041040;28;20059;-91
2022/09/06 04:31:29;;;;;;;2.05;1.08;;;;;;;20.83;74.62;94899.66;5026159;28;20083;-91
2022/09/06 04:33:55;;;;;;;6.40;1.10;;;;;;;20.64;73.44;94911.41;5042511;28;20037;-91
2022/09/06 04:36:20;;;;;;;6.30;1.67;;;;;;;20.67;74.03;94910.78;5026176;28;20033;-91
2022/09/06 04:38:45;;;;;;;3.78;1.05;;;;;;;20.60;76.50;94911.28;5026145;28;20170;-91
2022/09/06 04:41:14;;;;;;;7.65;1.52;;;;;;;20.27;80.67;94908.38;5042434;28;20029;-91
2022/09/06 04:43:40;;;;;;;3.30;1.10;;;;;;;20.51;79.07;94913.19;5042483;28;20032;-90
2022/09/06 04:46:10;;;;;;;3.30;1.70;;;;;;;20.83;80.81;94912.97;5042148;28;20090;-90
2022/09/06 04:48:35;;;;;;;2.75;1.33;;;;;;;20.76;76.80;94911.53;5042210;28;20140;-90
2022/09/06 04:51:01;;;;;;;3.95;1.30;;;;;;;20.80;81.43;94910.88;5025762;28;20433;-89
2022/09/06 04:53:26;;;;;;;3.22;1.20;;;;;;;20.66;79.49;94916.41;5042412;28;20036;-89
2022/09/06 04:55:51;;;;;;;3.30;1.20;;;;;;;20.79;78.06;94909.31;5025919;28;20029;-90
2022/09/06 04:58:17;;;;;;;9.35;1.38;;;;;;;20.59;79.88;94920.38;5042167;28;20040;-90
2022/09/06 05:00:43;;;;;;;7.80;1.30;;;;;;;20.35;81.98;94915.53;5025611;28;20033;-90
2022/09/06 05:03:09;;;;;;;6.57;1.30;;;;;;;20.54;80.40;94919.75;5025286;28;20047;-90
2022/09/06 05:05:34;;;;;;;4.18;1.48;;;;;;;20.07;86.37;94915.91;5052808;28;20025;-89
2022/09/06 05:08:00;;;;;;;5.72;1.45;;;;;;;20.07;78.21;94923.88;5022249;28;20040;-90
2022/09/06 05:10:25;;;;;;;1.30;1.10;;;;;;;20.25;78.82;94926.53;5022171;28;20087;-90
2022/09/06 05:12:52;;;;;;;2.25;1.20;;;;;;;20.63;80.33;94929.28;5021899;28;20462;-90
2022/09/06 05:15:18;;;;;;;6.50;1.33;;;;;;;20.90;68.07;94921.22;5021912;28;20041;-90
2022/09/06 05:17:43;;;;;;;3.42;1.23;;;;;;;21.06;68.70;94924.13;5021941;28;20033;-90
2022/09/06 05:20:09;;;;;;;3.33;1.35;;;;;;;21.08;71.91;94926.47;5021873;28;20099;-89
2022/09/06 05:22:35;;;;;;;7.00;1.30;;;;;;;21.08;71.90;94924.59;5005766;28;20056;-90
2022/09/06 05:25:01;;;;;;;2.60;1.50;;;;;;;21.28;71.71;94933.75;5021797;28;20125;-90
2022/09/06 05:27:26;;;;;;;6.40;1.30;;;;;;;21.47;70.33;94936.00;5005423;28;20037;-90
2022/09/06 05:29:52;;;;;;;3.65;1.10;;;;;;;21.63;68.96;94935.44;5021530;28;20056;-90
2022/09/06 05:32:17;;;;;;;2.08;0.98;;;;;;;21.73;65.85;94932.41;5021596;28;20025;-90
2022/09/06 05:34:43;;;;;;;5.05;1.30;;;;;;;21.84;65.30;94932.78;5005430;28;20040;-90
2022/09/06 05:37:08;;;;;;;4.07;1.10;;;;;;;21.97;68.28;94933.63;5021347;28;20087;-90
2022/09/06 05:39:33;;;;;;;2.30;1.20;;;;;;;22.00;70.58;94927.63;5020642;28;20072;-89
2022/09/06 05:42:00;;;;;;;7.28;1.70;;;;;;;21.54;76.33;94935.47;5021835;28;20063;-90
2022/09/06 05:44:25;;;;;;;7.13;1.30;;;;;;;21.11;85.73;94928.50;5021416;28;20041;-88
2022/09/06 05:46:51;;;;;;;2.58;1.33;;;;;;;21.08;100.00;94929.13;5009908;28;20448;-90
2022/09/06 05:49:16;;;;;;;6.65;1.30;;;;;;;21.43;98.33;94926.28;5041036;28;20033;-89
2022/09/06 05:51:42;;;;;;;3.50;1.45;;;;;;;21.82;91.85;94932.34;5054077;28;20341;-90
2022/09/06 05:54:12;;;;;;;5.05;1.42;;;;;;;22.02;82.83;94938.78;5039111;28;20083;-89
2022/09/06 05:56:37;;;;;;;4.30;1.52;;;;;;;22.11;78.74;94940.59;5057362;28;20025;-89
2022/09/06 05:59:04;;;;;;;5.43;1.20;;;;;;;22.23;77.17;94939.84;5030602;28;20381;-89
2022/09/06 06:01:30;;;;;;;15.60;1.88;;;;;;;22.30;82.29;94940.09;5033956;28;20119;-90
2022/09/06 06:04:03;;;;;;;2.55;1.10;;;;;;;22.56;81.36;94939.09;5040720;28;20064;-89
2022/09/06 06:06:33;;;;;;;3.25;1.40;;;;;;;22.65;77.76;94939.78;5040935;28;20025;-89
2022/09/06 06:08:58;;;;;;;4.93;1.40;;;;;;;22.64;76.81;94951.56;5024567;28;20116;-89
2022/09/06 06:11:25;;;;;;;8.68;1.52;;;;;;;22.73;77.40;94946.94;5058995;28;20110;-90
2022/09/06 06:13:51;;;;;;;4.38;1.70;;;;;;;22.48;85.75;94950.63;5028475;28;20515;-89
2022/09/06 06:16:18;;;;;;;2.00;1.20;;;;;;;21.85;100.00;94945.03;5020904;28;20029;-89
2022/09/06 06:18:43;;;;;;;4.75;1.58;;;;;;;21.68;100.00;94937.16;5038278;28;20323;-89
2022/09/06 06:21:20;;;;;;;6.95;1.67;;;;;;;22.57;97.34;94946.00;5004686;28;20037;-89
2022/09/06 06:23:48;;;;;;;4.35;1.40;;;;;;;22.80;89.82;94942.91;5020968;28;20033;-89
2022/09/06 06:26:13;;;;;;;3.80;1.23;;;;;;;23.02;88.68;94936.38;5020760;28;20316;-89
2022/09/06 06:28:39;;;;;;;6.00;1.50;;;;;;;23.01;91.72;94940.16;5020447;28;20043;-88
2022/09/06 06:31:06;;;;;;;7.13;1.70;;;;;;;23.24;89.91;94945.88;5020780;28;20080;-89
2022/09/06 06:33:32;;;;;;;5.90;1.40;;;;;;;23.23;88.79;94944.28;5020671;28;20053;-89
2022/09/06 06:36:01;;;;;;;5.30;1.20;;;;;;;23.54;85.59;94934.16;5020643;28;20060;-89
2022/09/06 06:38:32;;;;;;;5.03;1.35;;;;;;;23.59;84.75;94936.59;5020851;28;20103;-90
2022/09/06 06:40:58;;;;;;;7.30;1.50;;;;;;;23.67;83.58;94943.72;5020131;28;20045;-89
2022/09/06 06:43:24;;;;;;;12.15;1.63;;;;;;;23.56;85.84;94948.78;5020527;28;20053;-89
2022/09/06 06:45:49;;;;;;;2.80;1.30;;;;;;;23.62;84.63;94948.53;5020393;28;20108;-90
2022/09/06 06:48:15;;;;;;;2.67;1.50;;;;;;;23.70;82.68;94955.66;5004025;28;20034;-89
2022/09/06 06:50:41;;;;;;;3.80;1.20;;;;;;;23.86;82.34;94945.03;5004068;28;20032;-89
2022/09/06 06:53:06;;;;;;;7.05;1.65;;;;;;;24.00;83.64;94948.09;5020279;28;20040;-89
2022/09/06 06:55:31;;;;;;;2.50;0.90;;;;;;;24.14;82.76;94945.09;5020251;28;20041;-88
2022/09/06 06:58:00;;;;;;;9.02;1.52;;;;;;;23.98;92.75;94946.91;5020413;28;20422;-90
2022/09/06 07:00:26;;;;;;;6.10;1.15;;;;;;;24.25;90.29;94948.06;5019798;28;20115;-89
2022/09/06 07:02:55;;;;;;;6.60;1.33;;;;;;;24.50;85.94;94941.81;5020178;28;20039;-88
2022/09/06 07:05:23;;;;;;;8.65;1.38;;;;;;;23.77;100.00;94950.50;5004761;28;20116;-89
2022/09/06 07:07:48;;;;;;;6.53;1.45;;;;;;;24.49;90.16;94945.59;5019990;28;20033;-89
2022/09/06 07:10:14;;;;;;;3.35;1.33;;;;;;;24.73;93.99;94950.03;5020078;28;20489;-89
2022/09/06 07:12:39;;;;;;;4.53;1.60;;;;;;;24.47;100.00;94947.84;5020086;28;20315;-89
2022/09/06 07:15:17;;;;;;;1.83;1.27;;;;;;;24.84;96.80;94936.97;5003736;28;20041;-89
2022/09/06 07:17:43;;;;;;;3.35;1.30;;;;;;;24.78;98.36;94947.16;5037502;28;20025;-90
2022/09/06 07:20:09;;;;;;;3.22;1.30;;;;;;;25.08;91.61;94933.34;5019554;28;20036;-90
2022/09/06 07:22:34;;;;;;;9.45;1.33;;;;;;;25.22;89.90;94940.16;5037175;28;20025;-89
2022/09/06 07:24:59;;;;;;;2.67;1.40;;;;;;;25.04;99.30;94945.09;5019791;28;20170;-89
2022/09/06 07:27:25;;;;;;;3.00;1.70;;;;;;;24.84;100.00;94942.31;5019678;28;20037;-88
2022/09/06 07:29:50;;;;;;;5.50;1.35;;;;;;;24.89;81.40;94935.91;5003432;28;20495;-89
2022/09/06 07:32:16;;;;;;;3.28;1.13;;;;;;;24.88;81.13;94943.19;5019871;28;20346;-88
2022/09/06 07:34:41;;;;;;;9.60;1.95;;;;;;;24.60;86.56;94938.63;5037250;28;20029;-89
2022/09/06 07:37:07;;;;;;;4.75;1.65;;;;;;;25.00;87.31;94942.31;5037100;28;20029;-89
2022/09/06 07:39:32;;;;;;;2.95;1.23;;;;;;;25.19;85.04;94940.84;5003296;28;20029;-89
2022/09/06 07:41:58;;;;;;;12.73;1.60;;;;;;;24.82;90.58;94947.25;5019556;28;20517;-89
2022/09/06 07:44:23;;;;;;;4.18;1.33;;;;;;;24.81;94.83;94946.47;5003660;28;20025;-89
2022/09/06 07:46:50;;;;;;;6.95;1.50;;;;;;;24.99;92.73;94943.44;5019348;28;20037;-89
2022/09/06 07:49:16;;;;;;;7.60;1.65;;;;;;;25.30;88.41;94944.53;5003497;28;20040;-89
2022/09/06 07:51:41;;;;;;;1.80;1.25;;;;;;;25.33;89.57;94938.50;5003301;28;20029;-89
2022/09/06 07:54:09;;;;;;;7.15;1.42;;;;;;;25.31;84.14;94931.94;5003150;28;20032;-89
2022/09/06 07:56:35;;;;;;;7.07;1.65;;;;;;;25.24;82.17;94940.59;5003195;28;20037;-89
2022/09/06 07:59:00;;;;;;;4.53;1.27;;;;;;;25.33;79.06;94941.19;5036933;28;20079;-89
2022/09/06 08:01:26;;;;;;;9.13;1.70;;;;;;;25.16;85.13;94939.63;5003014;28;20041;-89
2022/09/06 08:03:52;;;;;;;5.15;1.27;;;;;;;25.27;88.63;94938.00;5036018;28;20125;-89
2022/09/06 08:06:18;;;;;;;4.60;1.30;;;;;;;25.21;88.85;94939.38;5002767;28;20120;-90
2022/09/06 08:08:43;;;;;;;6.20;1.60;;;;;;;25.51;83.35;94938.16;5002766;28;20033;-89
2022/09/06 08:11:09;;;;;;;7.40;1.15;;;;;;;25.83;76.12;94936.16;5019180;28;20423;-89
2022/09/06 08:13:43;;;;;;;5.93;1.27;;;;;;;25.77;74.19;94942.91;5019148;28;20497;-89
2022/09/06 08:16:10;;;;;;;6.85;1.67;;;;;;;26.07;73.48;94944.28;5019137;28;20029;-89
2022/09/06 08:18:36;;;;;;;5.43;1.38;;;;;;;25.93;80.11;94945.56;5018880;28;20029;-89
2022/09/06 08:21:12;;;;;;;7.05;1.45;;;;;;;26.37;75.55;94949.13;5002983;28;20033;-89
2022/09/06 08:23:59;;;;;;;1.80;1.10;;;;;;;26.62;76.45;94946.13;5019352;28;20021;-89
2022/09/06 08:26:26;;;;;;;2.33;1.25;;;;;;;26.67;90.62;94951.19;5018239;28;20042;-89
2022/09/06 08:28:59;;;;;;;7.20;1.13;;;;;;;26.61;94.67;94944.53;5002765;28;20099;-88
2022/09/06 08:31:26;;;;;;;4.68;1.20;;;;;;;26.94;89.09;94945.91;5018764;28;20025;-89
2022/09/06 08:33:52;;;;;;;4.60;1.33;;;;;;;26.86;85.88;94952.28;5018633;28;20457;-88
2022/09/06 08:36:19;;;;;;;9.90;1.73;;;;;;;26.68;89.62;94950.84;5018887;28;20115;-89
2022/09/06 08:38:44;;;;;;;4.85;1.40;;;;;;;26.68;85.99;94942.78;5019016;28;20040;-89
2022/09/06 08:41:20;;;;;;;2.88;1.48;;;;;;;27.16;77.44;94951.63;5018876;28;20037;-89
2022/09/06 08:44:09;;;;;;;3.97;1.52;;;;;;;27.28;76.34;94950.69;5018911;28;20029;-89
2022/09/06 08:46:48;;;;;;;7.15;1.33;;;;;;;27.16;78.34;94949.72;5018771;28;20036;-89
2022/09/06 08:49:14;;;;;;;3.92;1.25;;;;;;;27.34;77.57;94944.63;5018975;28;20029;-89
2022/09/06 08:51:55;;;;;;;6.82;1.48;;;;;;;27.47;85.01;94949.78;5018848;28;20059;-89
2022/09/06 08:54:32;;;;;;;5.60;1.40;;;;;;;28.02;72.39;94940.53;5036141;28;20037;-89
2022/09/06 08:57:08;;;;;;;6.03;1.50;;;;;;;27.87;76.61;94953.06;5018627;28;20029;-89
2022/09/06 08:59:38;;;;;;;6.70;1.60;;;;;;;28.17;75.85;94946.91;5008167;28;20398;-89
2022/09/06 09:02:07;;;;;;;3.97;1.27;;;;;;;28.30;70.34;94934.75;5039147;28;20551;-90
2022/09/06 09:04:33;;;;;;;3.35;1.20;;;;;;;28.58;72.00;94936.19;5048540;28;20108;-90
2022/09/06 09:07:17;;;;;;;7.35;1.27;;;;;;;28.53;70.80;94933.81;5021196;28;20041;-90
2022/09/06 09:09:42;;;;;;;2.40;1.20;;;;;;;28.34;79.16;94937.50;5018498;28;20095;-90
2022/09/06 09:12:10;;;;;;;11.13;1.55;;;;;;;28.75;73.32;94936.75;5018358;28;20021;-89
2022/09/06 09:14:36;;;;;;;3.17;1.40;;;;;;;28.64;70.31;94929.31;5019051;28;20026;-90
2022/09/06 09:17:14;;;;;;;5.05;1.60;;;;;;;29.05;74.56;94933.16;5005773;28;20510;-90
2022/09/06 09:19:40;;;;;;;5.28;1.70;;;;;;;29.11;74.02;94937.06;5021866;28;20033;-90
2022/09/06 09:22:06;;;;;;;6.00;1.77;;;;;;;29.24;77.22;94934.84;5021770;28;20120;-91
2022/09/06 09:24:31;;;;;;;8.65;2.05;;;;;;;29.16;70.66;94925.94;5022422;28;20027;-90
2022/09/06 09:27:09;;;;;;;6.97;1.75;;;;;;;29.02;73.29;94926.59;5021675;28;20036;-90
2022/09/06 09:29:53;;;;;;;6.53;1.67;;;;;;;29.19;72.44;94921.69;5005804;28;20083;-92
2022/09/06 09:32:48;;;;;;;9.02;2.08;;;;;;;29.15;68.87;94919.00;5021921;28;20031;-92
2022/09/06 09:35:29;;;;;;;5.65;1.48;;;;;;;29.08;68.22;94915.47;5005381;28;20087;-91
2022/09/06 09:38:09;;;;;;;4.07;1.30;;;;;;;29.41;71.25;94906.44;5039177;28;20061;-90
2022/09/06 09:40:59;;;;;;;5.90;1.95;;;;;;;29.39;67.06;94908.72;5021380;28;20025;-91
2022/09/06 09:43:30;;;;;;;3.75;1.40;;;;;;;28.86;71.25;94916.06;5005472;28;20422;-92
2022/09/06 09:46:22;;;;;;;3.78;1.42;;;;;;;28.55;65.37;94909.22;5005446;28;20434;-92
2022/09/06 09:49:10;;;;;;;3.80;1.48;;;;;;;28.58;63.18;94911.94;5028181;28;20187;-91
2022/09/06 09:51:41;;;;;;;8.45;1.60;;;;;;;29.19;63.24;94911.69;5005313;28;20022;-91
2022/09/06 09:54:08;;;;;;;5.57;1.90;;;;;;;29.37;61.00;94905.63;5005005;28;20040;-90
2022/09/06 09:56:47;;;;;;;4.53;1.40;;;;;;;29.68;60.72;94914.31;5004771;28;20025;-89
2022/09/06 09:59:25;;;;;;;7.95;1.50;;;;;;;29.48;63.63;94906.50;5021397;28;20033;-89
2022/09/06 10:01:54;;;;;;;4.75;1.30;;;;;;;29.89;62.80;94919.03;5021201;28;20434;-88
2022/09/06 10:04:29;;;;;;;3.20;1.60;;;;;;;30.02;63.03;94906.00;5021303;28;20338;-89
2022/09/06 10:07:10;;;;;;;6.97;1.40;;;;;;;29.78;61.39;94907.44;5020743;28;20091;-89
2022/09/06 10:09:39;;;;;;;4.57;1.50;;;;;;;29.97;61.82;94911.00;5019229;28;20033;-88
2022/09/06 10:12:05;;;;;;;7.22;1.70;;;;;;;30.20;63.06;94902.59;5040925;28;20116;-89
2022/09/06 10:14:47;;;;;;;3.67;1.40;;;;;;;30.16;60.55;94899.13;5040906;28;20056;-89
2022/09/06 10:17:51;;;;;;;3.72;1.48;;;;;;;29.91;59.33;94895.16;5028277;28;20025;-88
2022/09/06 10:20:17;;;;;;;;;;;;;;;29.98;56.55;94885.53;4996807;28;20041;-89
2022/09/06 10:23:02;;;;;;;5.05;1.42;;;;;;;30.05;55.83;94893.66;4997216;28;19996;-89
2022/09/06 10:25:36;;;;;;;3.42;1.10;;;;;;;30.46;55.14;94896.09;5032784;28;20041;-89
2022/09/06 10:28:08;;;;;;;4.43;1.20;;;;;;;30.40;56.99;94891.44;5057978;28;20029;-89
2022/09/06 10:30:35;;;;;;;3.70;0.93;;;;;;;30.63;54.68;94888.44;5058101;28;20036;-89
2022/09/06 10:33:06;;;;;;;2.55;1.15;;;;;;;30.79;54.13;94882.63;5040578;28;20056;-88
2022/09/06 10:35:38;;;;;;;4.97;1.38;;;;;;;29.90;55.75;94873.91;5057943;28;20071;-90
2022/09/06 10:38:34;;;;;;;5.60;1.50;;;;;;;30.14;50.21;94877.88;5040178;28;20033;-88
2022/09/06 10:41:44;;;;;;;5.35;1.38;;;;;;;30.27;53.74;94877.53;5056793;28;20091;-89
2022/09/06 10:44:22;;;;;;;5.20;1.73;;;;;;;30.57;54.08;94868.31;4995171;28;20169;-88
2022/09/06 10:46:58;;;;;;;10.40;1.83;;;;;;;30.61;54.77;94869.84;5032820;28;20581;-89
2022/09/06 10:49:23;;;;;;;7.85;1.70;;;;;;;30.42;54.48;94868.28;5039730;28;20077;-89
2022/09/06 10:51:56;;;;;;;4.88;1.48;;;;;;;30.49;53.36;94867.53;5037912;28;20107;-89
2022/09/06 10:54:22;;;;;;;4.80;1.30;;;;;;;31.06;51.75;94867.94;5020416;28;20033;-88
2022/09/06 10:57:20;;;;;;;5.93;1.73;;;;;;;31.12;50.06;94872.56;5020296;28;20048;-89
2022/09/06 10:59:50;;;;;;;3.72;1.40;;;;;;;31.05;47.09;94872.59;5033730;28;20041;-88
2022/09/06 11:02:49;;;;;;;6.65;1.55;;;;;;;31.02;48.13;94868.72;5037869;28;20029;-89
2022/09/06 11:05:23;;;;;;;4.03;1.13;;;;;;;30.89;48.09;94859.44;5020325;28;20059;-88
2022/09/06 11:08:23;;;;;;;9.18;1.90;;;;;;;31.54;49.47;94853.16;5019800;28;20037;-88
2022/09/06 11:10:50;;;;;;;2.08;1.00;;;;;;;31.29;49.43;94854.78;5037236;28;20108;-89
2022/09/06 11:13:19;;;;;;;7.55;1.20;;;;;;;30.30;47.96;94855.13;5036656;28;20419;-88
2022/09/06 11:15:56;;;;;;;8.07;1.20;;;;;;;30.68;51.58;94847.50;5028463;28;20029;-89
2022/09/06 11:18:53;;;;;;;7.40;1.35;;;;;;;31.17;50.18;94855.94;5021727;28;20029;-89
2022/09/06 11:21:21;;;;;;;4.28;1.17;;;;;;;31.48;50.57;94852.78;5024057;28;20468;-89
2022/09/06 11:23:50;;;;;;;3.20;1.40;;;;;;;31.37;51.13;94852.84;5057017;28;20063;-88
2022/09/06 11:26:47;;;;;;;6.22;1.50;;;;;;;31.76;50.66;94851.16;5048217;28;20037;-88
2022/09/06 11:29:24;;;;;;;2.75;1.25;;;;;;;31.84;52.08;94850.00;5036801;28;20068;-88
2022/09/06 11:31:54;;;;;;;5.57;1.52;;;;;;;30.92;51.48;94842.47;5021185;28;20036;-90
2022/09/06 11:34:24;;;;;;;6.50;1.98;;;;;;;31.50;52.47;94847.00;5022678;28;20068;-88
2022/09/06 11:37:00;;;;;;;4.57;2.00;;;;;;;31.69;52.30;94845.78;5056674;28;20067;-89
2022/09/06 11:39:30;;;;;;;3.47;1.50;;;;;;;31.89;50.38;94840.69;5022562;28;20029;-89
2022/09/06 11:41:56;;;;;;;9.32;1.70;;;;;;;31.34;50.52;94839.31;5022767;28;20033;-89
2022/09/06 11:44:49;;;;;;;5.40;1.40;;;;;;;31.37;51.52;94838.53;5039340;28;20041;-89
2022/09/06 11:47:40;;;;;;;7.80;2.03;;;;;;;31.08;50.63;94830.47;5056578;28;20389;-91
2022/09/06 11:50:23;;;;;;;5.72;2.03;;;;;;;31.29;53.93;94826.97;5003156;28;20036;-89